Time;durP1;ratioP1;P1;durP2;ratioP2;P2;SDS_P1;SDS_P2;PMS_P1;PMS_P2;Temp;Humidity;BMP_temperature;BMP_pressure;BME280_temperature;BME280_humidity;BME280_pressure;Samples;Min_cycle;Max_cycle;Signal;HPM_P1;HPM_P2
2023/10/08 00:02:05;;;;;;;0.20;0.20;;;;;;;12.37;91.23;101127.81;5028171;28;20215;-72
2023/10/08 00:04:37;;;;;;;0.33;0.33;;;;;;;12.35;90.94;101122.84;5031279;28;20801;-72
2023/10/08 00:07:07;;;;;;;2.53;0.40;;;;;;;12.30;91.22;101124.88;5032535;28;20226;-72
2023/10/08 00:09:35;;;;;;;0.27;0.27;;;;;;;12.27;90.69;101102.47;5031541;28;20568;-71
2023/10/08 00:12:02;;;;;;;0.50;0.50;;;;;;;12.25;90.49;101114.50;5027941;28;20339;-71
2023/10/08 00:14:28;;;;;;;0.30;0.30;;;;;;;12.18;91.02;101120.31;5029919;28;20215;-71
2023/10/08 00:16:55;;;;;;;0.50;0.50;;;;;;;12.17;91.20;101118.00;5030678;28;21302;-72
2023/10/08 00:19:21;;;;;;;0.40;0.40;;;;;;;12.13;91.02;101117.09;5028151;28;20219;-71
2023/10/08 00:21:52;;;;;;;0.40;0.40;;;;;;;12.14;90.79;101132.66;5028796;28;20220;-71
2023/10/08 00:24:26;;;;;;;0.40;0.40;;;;;;;12.10;91.38;101141.53;5028112;28;21385;-71
2023/10/08 00:26:54;;;;;;;0.30;0.30;;;;;;;12.09;91.23;101145.28;5025806;28;21417;-72
2023/10/08 00:29:22;;;;;;;5.53;0.23;;;;;;;12.07;91.38;101168.66;5024993;28;20262;-72
2023/10/08 00:31:49;;;;;;;0.33;0.30;;;;;;;12.03;91.72;101162.47;5039787;28;20308;-72
2023/10/08 00:34:19;;;;;;;0.27;0.23;;;;;;;11.98;91.36;101158.13;5027184;28;20220;-72
2023/10/08 00:36:49;;;;;;;0.23;0.23;;;;;;;11.94;90.76;101162.50;5011208;28;20353;-72
2023/10/08 00:39:22;;;;;;;1.33;0.40;;;;;;;11.86;91.06;101170.50;5027720;28;20314;-72
2023/10/08 00:41:50;;;;;;;0.63;0.30;;;;;;;11.80;90.83;101169.13;5019921;28;20215;-71
2023/10/08 00:44:22;;;;;;;1.53;0.60;;;;;;;11.77;90.84;101173.19;5025156;28;20243;-71
2023/10/08 00:46:50;;;;;;;2.20;0.47;;;;;;;11.71;90.39;101177.09;5022183;28;20541;-71
2023/10/08 00:49:35;;;;;;;0.73;0.50;;;;;;;11.65;90.85;101175.72;5027999;28;20207;-71
2023/10/08 00:52:25;;;;;;;0.50;0.50;;;;;;;11.60;90.50;101194.41;5019261;28;20330;-71
2023/10/08 00:55:04;;;;;;;1.73;0.70;;;;;;;11.53;91.10;101190.66;5026692;28;20223;-71
2023/10/08 00:57:35;;;;;;;1.40;0.80;;;;;;;11.46;90.45;101177.16;5023606;28;20221;-71
2023/10/08 01:00:06;;;;;;;1.90;0.70;;;;;;;11.44;91.25;101180.13;5030651;28;21936;-72
2023/10/08 01:02:44;;;;;;;1.20;0.83;;;;;;;11.37;91.14;101192.28;5028863;28;21408;-71
2023/10/08 01:05:12;;;;;;;2.57;1.00;;;;;;;11.29;90.60;101195.72;5030512;28;20364;-72
2023/10/08 01:07:44;;;;;;;2.90;1.00;;;;;;;11.26;90.96;101198.97;5030866;28;20210;-71
2023/10/08 01:10:13;;;;;;;2.97;1.07;;;;;;;11.22;90.78;101203.34;5027631;28;20233;-72
2023/10/08 01:12:47;;;;;;;8.40;1.63;;;;;;;11.12;90.53;101207.09;5028673;28;20320;-71
2023/10/08 01:15:23;;;;;;;7.03;1.20;;;;;;;11.07;90.81;101225.75;5033070;28;20209;-72
2023/10/08 01:17:57;;;;;;;2.47;1.00;;;;;;;11.02;90.92;101223.28;5031409;28;20213;-71
2023/10/08 01:20:33;;;;;;;1.77;0.83;;;;;;;10.97;91.00;101214.75;5028938;28;20213;-72
2023/10/08 01:23:03;;;;;;;4.03;1.00;;;;;;;10.91;90.23;101211.47;5032305;28;20265;-71
2023/10/08 01:25:30;;;;;;;4.50;1.07;;;;;;;10.88;90.61;101211.31;5028794;28;20858;-71
2023/10/08 01:28:00;;;;;;;1.57;0.87;;;;;;;10.85;90.63;101210.09;5031151;28;20323;-72
2023/10/08 01:30:34;;;;;;;4.80;1.20;;;;;;;10.83;90.17;101208.84;5030621;28;20820;-71
2023/10/08 01:33:02;;;;;;;5.57;1.30;;;;;;;10.77;90.67;101225.94;5025185;28;21756;-71
2023/10/08 01:35:31;;;;;;;3.77;1.10;;;;;;;10.75;90.65;101238.66;5026923;28;21635;-72
2023/10/08 01:37:59;;;;;;;4.57;0.80;;;;;;;10.71;91.00;101243.78;5028252;28;20202;-71
2023/10/08 01:40:29;;;;;;;2.83;1.23;;;;;;;10.69;91.33;101251.25;5029200;28;20600;-71
2023/10/08 01:42:59;;;;;;;3.73;1.03;;;;;;;10.70;91.57;101249.38;5023309;28;20339;-71
2023/10/08 01:45:26;;;;;;;2.63;1.20;;;;;;;10.70;91.93;101233.53;5030015;28;20218;-71
2023/10/08 01:47:54;;;;;;;3.20;0.90;;;;;;;10.74;92.44;101231.81;5029334;28;20304;-72
2023/10/08 01:50:22;;;;;;;1.77;0.93;;;;;;;10.72;93.24;101229.50;5026974;28;20236;-71
2023/10/08 01:52:48;;;;;;;7.70;1.20;;;;;;;10.77;93.19;101233.88;5021730;28;20346;-71
2023/10/08 01:55:18;;;;;;;1.60;0.97;;;;;;;10.79;94.06;101231.66;5029709;28;20209;-71
2023/10/08 01:57:45;;;;;;;2.43;1.10;;;;;;;10.78;93.01;101251.25;5018026;28;20214;-71
2023/10/08 02:00:14;;;;;;;2.27;1.07;;;;;;;10.80;93.28;101267.56;5031664;28;20216;-72
2023/10/08 02:02:40;;;;;;;2.60;0.97;;;;;;;10.83;93.80;101272.25;5031515;28;20299;-71
2023/10/08 02:05:08;;;;;;;3.33;1.00;;;;;;;10.83;94.06;101282.81;5029596;28;21475;-72
2023/10/08 02:07:34;;;;;;;3.70;1.00;;;;;;;10.83;93.20;101298.66;5032011;28;20502;-72
2023/10/08 02:10:00;;;;;;;3.27;1.07;;;;;;;10.83;94.30;101296.81;5029622;28;20344;-71
2023/10/08 02:12:27;;;;;;;3.33;1.00;;;;;;;10.85;94.44;101296.47;5025122;28;20229;-72
2023/10/08 02:14:54;;;;;;;4.73;1.27;;;;;;;10.85;94.14;101312.31;5030657;28;21206;-72
2023/10/08 02:17:21;;;;;;;5.17;1.37;;;;;;;10.85;92.90;101301.75;5034461;28;20691;-71
2023/10/08 02:19:49;;;;;;;7.00;0.90;;;;;;;10.84;93.33;101308.94;5032907;28;21337;-72
2023/10/08 02:22:15;;;;;;;3.70;1.13;;;;;;;10.85;94.20;101320.25;5035603;28;20206;-72
2023/10/08 02:24:42;;;;;;;1.77;1.13;;;;;;;10.84;93.71;101319.50;5045996;28;20210;-72
2023/10/08 02:27:10;;;;;;;2.40;0.87;;;;;;;10.86;93.84;101321.81;5028361;28;20289;-72
2023/10/08 02:29:36;;;;;;;2.83;1.13;;;;;;;10.85;94.21;101334.25;5019167;28;20217;-71
2023/10/08 02:32:05;;;;;;;2.30;1.10;;;;;;;10.87;94.17;101329.44;5023180;28;20229;-71
2023/10/08 02:34:31;;;;;;;2.17;1.07;;;;;;;10.84;94.49;101324.00;5022436;28;20346;-72
2023/10/08 02:36:58;;;;;;;3.27;1.10;;;;;;;10.85;93.65;101336.91;5028779;28;20210;-72
2023/10/08 02:39:25;;;;;;;2.00;1.00;;;;;;;10.84;94.06;101340.63;5026236;28;21275;-72
2023/10/08 02:41:55;;;;;;;3.53;1.10;;;;;;;10.83;93.83;101356.78;5027577;28;20210;-72
2023/10/08 02:44:22;;;;;;;2.90;1.03;;;;;;;10.81;93.12;101353.69;5031950;28;21025;-72
2023/10/08 02:46:51;;;;;;;6.67;1.00;;;;;;;10.81;93.78;101358.97;5037408;28;20222;-72
2023/10/08 02:49:20;;;;;;;4.53;1.17;;;;;;;10.79;93.56;101351.34;5038762;28;20510;-72
2023/10/08 02:51:50;;;;;;;3.10;1.30;;;;;;;10.72;92.90;101350.22;5033739;28;20897;-71
2023/10/08 02:54:18;;;;;;;3.40;1.03;;;;;;;10.74;93.50;101348.06;5034455;28;20447;-71
2023/10/08 02:56:45;;;;;;;3.93;1.40;;;;;;;10.72;92.73;101360.81;5038635;28;21401;-71
2023/10/08 02:59:13;;;;;;;5.47;1.40;;;;;;;10.70;93.58;101362.94;5039678;28;21118;-72
2023/10/08 03:01:40;;;;;;;4.13;1.40;;;;;;;10.68;93.37;101371.22;5036790;28;20466;-72
2023/10/08 03:04:14;;;;;;;5.00;1.53;;;;;;;10.64;93.21;101378.19;5033766;28;21727;-72
2023/10/08 03:06:42;;;;;;;2.67;1.10;;;;;;;10.64;93.25;101390.59;5032540;28;20229;-71
2023/10/08 03:09:09;;;;;;;6.80;1.33;;;;;;;10.61;93.18;101391.97;5032445;28;21004;-72
2023/10/08 03:11:37;;;;;;;2.77;1.37;;;;;;;10.62;93.27;101398.81;5034428;28;20209;-71
2023/10/08 03:14:04;;;;;;;7.30;1.40;;;;;;;10.60;93.19;101395.72;5030828;28;20247;-72
2023/10/08 03:16:34;;;;;;;3.80;1.20;;;;;;;10.60;93.13;101408.13;5030196;28;20202;-71
2023/10/08 03:19:01;;;;;;;4.37;1.27;;;;;;;10.60;93.29;101410.78;5037494;28;20209;-72
2023/10/08 03:24:23;;;;;;;5.23;1.33;;;;;;;10.59;94.40;101398.66;5035600;28;20284;-71
2023/10/08 03:26:55;;;;;;;4.43;1.40;;;;;;;10.61;94.07;101384.06;5038254;28;20222;-72
2023/10/08 03:29:28;;;;;;;9.00;1.73;;;;;;;10.60;94.82;101369.31;5030910;28;20209;-71
2023/10/08 03:31:57;;;;;;;3.40;1.47;;;;;;;10.62;94.75;101363.72;5028614;28;20223;-71
2023/10/08 03:34:27;;;;;;;3.80;1.37;;;;;;;10.60;94.23;101364.03;5031797;28;20225;-71
2023/10/08 03:37:05;;;;;;;5.97;1.60;;;;;;;10.61;94.27;101380.66;5030273;28;20190;-72
2023/10/08 03:39:50;;;;;;;6.03;1.40;;;;;;;10.60;94.22;101387.78;5032005;28;20566;-72
2023/10/08 03:42:20;;;;;;;3.50;1.00;;;;;;;10.62;94.53;101392.78;5029799;28;20210;-71
2023/10/08 03:44:50;;;;;;;3.97;1.30;;;;;;;10.62;94.55;101398.06;5027600;28;20211;-71
2023/10/08 03:47:18;;;;;;;3.93;1.40;;;;;;;10.60;94.80;101394.91;5030436;28;20229;-71
2023/10/08 03:49:46;;;;;;;3.07;1.20;;;;;;;10.60;94.49;101387.78;5027136;28;21544;-72
2023/10/08 03:52:13;;;;;;;7.17;1.60;;;;;;;10.61;94.75;101383.28;5026188;28;20214;-71
2023/10/08 03:54:48;;;;;;;7.20;1.70;;;;;;;10.62;94.90;101376.94;5024513;28;20225;-71
2023/10/08 03:57:18;;;;;;;4.47;1.50;;;;;;;10.63;95.30;101376.63;5029579;28;20212;-72
2023/10/08 03:59:48;;;;;;;9.97;1.60;;;;;;;10.61;94.74;101386.69;5032208;28;20946;-72
2023/10/08 04:02:22;;;;;;;4.80;1.40;;;;;;;10.61;95.41;101399.16;5025315;28;20228;-71
2023/10/08 04:04:51;;;;;;;5.10;1.60;;;;;;;10.62;94.44;101405.97;5025402;28;20400;-71
2023/10/08 04:07:59;;;;;;;3.20;1.30;;;;;;;10.61;94.22;101415.75;5031096;28;20240;-71
2023/10/08 04:10:49;;;;;;;9.67;1.97;;;;;;;10.60;94.83;101430.03;5031510;28;20427;-72
2023/10/08 04:13:16;;;;;;;4.27;2.17;;;;;;;10.60;94.36;101435.31;5033040;28;20233;-72
2023/10/08 04:15:42;;;;;;;5.77;1.50;;;;;;;10.61;95.11;101434.25;5034259;28;20220;-72
2023/10/08 04:18:09;;;;;;;5.33;1.50;;;;;;;10.60;94.60;101447.75;5032248;28;21176;-71
2023/10/08 04:20:38;;;;;;;4.23;1.60;;;;;;;10.58;94.56;101448.06;5032398;28;20587;-72
2023/10/08 04:23:13;;;;;;;4.27;1.33;;;;;;;10.58;95.38;101463.13;5032099;28;20912;-71
2023/10/08 04:25:42;;;;;;;4.83;1.77;;;;;;;10.56;94.47;101473.97;5033081;28;23015;-71
2023/10/08 04:28:14;;;;;;;4.87;1.50;;;;;;;10.49;94.46;101478.94;5033890;28;20206;-72
2023/10/08 04:30:41;;;;;;;8.03;1.67;;;;;;;10.54;94.51;101476.16;5030701;28;20217;-71
2023/10/08 04:33:12;;;;;;;5.40;1.67;;;;;;;10.53;95.00;101479.88;5022167;28;21367;-72
2023/10/08 04:35:47;;;;;;;8.27;1.87;;;;;;;10.53;94.96;101484.38;5031291;28;20221;-71
2023/10/08 04:38:17;;;;;;;6.20;1.57;;;;;;;10.52;95.09;101486.25;5029634;28;20582;-71
2023/10/08 04:40:48;;;;;;;6.07;1.70;;;;;;;10.52;94.62;101483.63;5029801;28;20203;-71
2023/10/08 04:43:18;;;;;;;3.03;1.40;;;;;;;10.53;94.87;101481.75;5025853;28;20229;-71
2023/10/08 04:45:46;;;;;;;4.47;1.30;;;;;;;10.53;95.31;101479.09;5029876;28;20234;-71
2023/10/08 04:48:19;;;;;;;2.73;1.40;;;;;;;10.51;94.54;101495.25;5028969;28;20259;-71
2023/10/08 04:50:45;;;;;;;8.13;1.70;;;;;;;10.51;95.28;101505.81;5027192;28;21091;-71
2023/10/08 04:53:15;;;;;;;8.73;2.07;;;;;;;10.47;95.09;101510.16;5026359;28;20230;-72
2023/10/08 04:55:48;;;;;;;7.43;1.50;;;;;;;10.50;94.79;101511.41;5032116;28;20213;-71
2023/10/08 04:58:21;;;;;;;5.27;1.70;;;;;;;10.48;94.61;101530.19;5031921;28;21329;-72
2023/10/08 05:00:54;;;;;;;3.13;1.60;;;;;;;10.47;95.18;101533.91;5029593;28;20226;-71
2023/10/08 05:03:22;;;;;;;3.13;1.27;;;;;;;10.47;95.33;101539.19;5032472;28;20343;-72
2023/10/08 05:06:05;;;;;;;4.37;1.87;;;;;;;10.47;94.79;101536.56;5029221;28;21410;-72
2023/10/08 05:08:47;;;;;;;6.47;2.27;;;;;;;10.47;95.14;101543.69;5032257;28;20213;-72
2023/10/08 05:11:24;;;;;;;3.00;2.60;;;;;;;10.47;94.97;101543.69;5030223;28;20218;-71
2023/10/08 05:14:05;;;;;;;4.90;2.13;;;;;;;10.46;95.30;101545.53;5031968;28;20845;-71
2023/10/08 05:16:43;;;;;;;4.67;1.57;;;;;;;10.46;94.96;101545.53;5033987;28;20225;-71
2023/10/08 05:19:47;;;;;;;5.77;1.80;;;;;;;10.46;95.27;101556.09;5032283;28;20234;-71
2023/10/08 05:22:17;;;;;;;10.23;2.10;;;;;;;10.47;95.72;101552.41;5030778;28;20293;-71
2023/10/08 05:25:05;;;;;;;9.73;2.07;;;;;;;10.48;95.34;101559.22;5032749;28;20217;-71
2023/10/08 05:27:38;;;;;;;6.00;1.90;;;;;;;10.46;95.15;101552.69;5031762;28;20704;-71
2023/10/08 05:30:16;;;;;;;10.07;2.23;;;;;;;10.47;95.57;101564.81;5029540;28;20198;-72
2023/10/08 05:33:06;;;;;;;6.87;1.90;;;;;;;10.49;95.91;101570.56;5028649;28;20796;-72
2023/10/08 05:35:48;;;;;;;3.20;1.80;;;;;;;10.48;95.72;101563.72;5030741;28;20207;-72
2023/10/08 05:38:22;;;;;;;5.50;2.00;;;;;;;10.49;95.86;101575.84;5034756;28;20213;-72
2023/10/08 05:41:05;;;;;;;7.63;2.37;;;;;;;10.48;95.91;101583.00;5031037;28;20209;-72
2023/10/08 05:43:48;;;;;;;9.40;2.23;;;;;;;10.48;95.85;101598.84;5026328;28;20671;-71
2023/10/08 05:46:39;;;;;;;4.07;2.50;;;;;;;10.49;95.83;101608.31;5026802;28;20225;-71
2023/10/08 05:49:26;;;;;;;4.63;2.10;;;;;;;10.48;95.78;101616.53;5028541;28;20260;-72
2023/10/08 05:52:13;;;;;;;7.07;2.20;;;;;;;10.48;95.55;101617.31;5029189;28;20208;-71
2023/10/08 05:55:10;;;;;;;8.73;2.23;;;;;;;10.49;95.59;101620.72;5025230;28;20328;-72
2023/10/08 05:57:35;;;;;;;3.97;2.43;;;;;;;10.49;95.86;101632.09;5027849;28;20824;-72
2023/10/08 06:03:00;;;;;;;7.77;2.73;;;;;;;10.47;96.30;101647.47;5029334;28;21637;-72
2023/10/08 06:05:32;;;;;;;7.07;2.67;;;;;;;10.47;96.33;101644.03;5028298;28;20909;-71
2023/10/08 06:08:11;;;;;;;7.70;2.13;;;;;;;10.45;95.89;101635.63;5027719;28;20266;-71
2023/10/08 06:10:44;;;;;;;6.90;2.70;;;;;;;10.46;95.66;101639.84;5027884;28;20230;-72
2023/10/08 06:13:13;;;;;;;8.23;2.47;;;;;;;10.45;95.40;101644.31;5025720;28;20739;-71
2023/10/08 06:15:47;;;;;;;6.10;2.40;;;;;;;10.43;95.66;101658.91;5032739;28;20231;-71
2023/10/08 06:18:16;;;;;;;9.97;2.27;;;;;;;10.43;96.02;101661.53;5036073;28;20571;-72
2023/10/08 06:20:44;;;;;;;7.13;2.27;;;;;;;10.42;95.70;101662.63;5034255;28;20205;-71
2023/10/08 06:23:12;;;;;;;8.77;2.60;;;;;;;10.44;96.98;101663.09;5035290;28;21306;-71
2023/10/08 06:25:45;;;;;;;9.87;2.50;;;;;;;10.48;96.49;101667.50;5031250;28;20593;-71
2023/10/08 06:28:14;;;;;;;6.27;2.47;;;;;;;10.53;96.26;101677.94;5027540;28;20588;-71
2023/10/08 06:30:41;;;;;;;9.33;2.50;;;;;;;10.57;96.97;101686.06;5028847;28;20224;-72
2023/10/08 06:33:08;;;;;;;6.90;2.40;;;;;;;10.63;96.70;101700.72;5027666;28;20234;-71
2023/10/08 06:35:36;;;;;;;10.73;2.80;;;;;;;10.67;97.82;101710.38;5029933;28;20214;-72
2023/10/08 06:38:07;;;;;;;8.93;3.13;;;;;;;10.76;97.22;101718.38;5032875;28;20194;-71
2023/10/08 06:40:43;;;;;;;8.17;2.90;;;;;;;10.81;97.04;101728.84;5032082;28;21653;-71
2023/10/08 06:43:14;;;;;;;10.73;2.90;;;;;;;10.85;96.67;101727.94;5027804;28;20232;-71
2023/10/08 06:45:41;;;;;;;8.67;3.10;;;;;;;10.92;96.96;101735.47;5029827;28;20209;-72
2023/10/08 06:48:09;;;;;;;9.03;3.20;;;;;;;10.97;97.24;101751.97;5024251;28;20226;-72
2023/10/08 06:50:36;;;;;;;11.07;3.40;;;;;;;11.04;97.18;101749.72;5028134;28;21197;-71
2023/10/08 06:53:07;;;;;;;9.40;3.50;;;;;;;11.11;96.58;101752.69;5029588;28;20232;-71
2023/10/08 06:55:35;;;;;;;7.13;3.50;;;;;;;11.18;97.46;101763.63;5028798;28;20799;-72
2023/10/08 06:58:05;;;;;;;8.90;3.70;;;;;;;11.25;97.16;101766.66;5028524;28;20904;-71
2023/10/08 07:00:39;;;;;;;10.00;4.13;;;;;;;11.31;97.22;101770.72;5036842;28;20317;-71
2023/10/08 07:03:10;;;;;;;13.17;4.67;;;;;;;11.35;96.01;101755.84;5033704;28;20237;-72
2023/10/08 07:05:40;;;;;;;10.67;4.17;;;;;;;11.41;95.72;101753.81;5034906;28;20217;-71
2023/10/08 07:08:12;;;;;;;13.50;4.00;;;;;;;11.43;94.88;101764.91;5032130;28;20222;-71
2023/10/08 07:10:41;;;;;;;11.07;3.73;;;;;;;11.45;94.84;101773.31;5027465;28;20215;-72
2023/10/08 07:13:08;;;;;;;11.30;4.40;;;;;;;11.47;94.37;101776.41;5031638;28;20380;-71
2023/10/08 07:15:38;;;;;;;13.93;4.37;;;;;;;11.50;94.24;101776.59;5029134;28;20371;-72
2023/10/08 07:18:09;;;;;;;12.33;4.20;;;;;;;11.54;93.56;101779.44;5030888;28;20207;-71
2023/10/08 07:20:39;;;;;;;11.33;4.57;;;;;;;11.56;93.81;101783.34;5028105;28;20912;-71
2023/10/08 07:23:12;;;;;;;12.53;4.73;;;;;;;11.61;94.12;101780.59;5027614;28;21646;-71
2023/10/08 07:25:38;;;;;;;10.40;4.20;;;;;;;11.63;93.04;101785.56;5021985;28;20214;-71
2023/10/08 07:28:06;;;;;;;16.87;4.77;;;;;;;11.64;92.06;101795.84;5021120;28;20224;-71
2023/10/08 07:30:39;;;;;;;7.07;4.27;;;;;;;11.68;92.51;101794.19;5028208;28;20211;-70
2023/10/08 07:33:06;;;;;;;12.77;4.70;;;;;;;11.71;91.83;101793.59;5030155;28;22008;-71
2023/10/08 07:35:38;;;;;;;10.27;4.60;;;;;;;11.74;91.36;101800.91;5032261;28;20257;-71
2023/10/08 07:38:09;;;;;;;13.13;3.70;;;;;;;11.77;91.96;101810.88;5031601;28;22219;-73
2023/10/08 07:40:37;;;;;;;12.23;4.30;;;;;;;11.82;91.42;101815.25;5030870;28;21270;-73
2023/10/08 07:43:08;;;;;;;11.97;3.90;;;;;;;11.83;91.39;101830.06;5028109;28;20235;-72
2023/10/08 07:45:35;;;;;;;8.83;3.80;;;;;;;11.85;91.24;101822.59;5030721;28;20215;-72
2023/10/08 07:48:06;;;;;;;6.60;4.13;;;;;;;11.82;89.93;101824.00;5028871;28;20224;-71
2023/10/08 07:50:32;;;;;;;9.43;3.50;;;;;;;11.80;89.75;101828.03;5029029;28;20987;-72
2023/10/08 07:52:58;;;;;;;6.73;3.40;;;;;;;11.78;90.07;101828.31;5031815;28;20239;-73
2023/10/08 07:55:26;;;;;;;8.80;3.67;;;;;;;11.75;89.84;101834.22;5030337;28;20204;-72
2023/10/08 07:57:52;;;;;;;7.57;3.30;;;;;;;11.72;89.45;101836.69;5026123;28;20850;-73
2023/10/08 08:00:22;;;;;;;5.50;3.13;;;;;;;11.69;89.39;101840.72;5027077;28;20218;-72
2023/10/08 08:02:49;;;;;;;8.53;3.67;;;;;;;11.68;89.68;101849.75;5026771;28;20246;-73
2023/10/08 08:05:17;;;;;;;10.63;3.33;;;;;;;11.70;90.22;101849.44;5027915;28;20211;-71
2023/10/08 08:07:45;;;;;;;8.33;2.90;;;;;;;11.69;89.24;101855.81;5025050;28;20851;-72
2023/10/08 08:10:14;;;;;;;10.30;3.57;;;;;;;11.68;87.87;101862.19;5026853;28;20281;-72
2023/10/08 08:12:42;;;;;;;5.27;3.10;;;;;;;11.69;88.39;101872.47;5023718;28;20226;-72
2023/10/08 08:15:15;;;;;;;4.90;3.20;;;;;;;11.69;87.36;101879.63;5029202;28;20292;-72
2023/10/08 08:17:42;;;;;;;3.97;2.97;;;;;;;11.68;86.90;101876.19;5027594;28;20743;-72
2023/10/08 08:20:18;;;;;;;4.50;2.53;;;;;;;11.69;86.13;101888.34;5025394;28;20487;-72
2023/10/08 08:22:49;;;;;;;8.67;2.37;;;;;;;11.69;86.14;101884.94;5022833;28;20312;-72
2023/10/08 08:25:16;;;;;;;3.50;2.10;;;;;;;11.68;83.91;101880.69;5030517;28;20210;-72
2023/10/08 08:27:46;;;;;;;6.13;2.00;;;;;;;11.69;85.42;101885.69;5026839;28;20235;-72
2023/10/08 08:30:15;;;;;;;4.83;2.20;;;;;;;11.68;83.19;101875.41;5025665;28;20206;-72
2023/10/08 08:32:44;;;;;;;4.23;2.20;;;;;;;11.67;83.19;101874.63;5027570;28;20249;-74
2023/10/08 08:35:11;;;;;;;5.37;2.30;;;;;;;11.69;84.02;101884.94;5029909;28;21299;-72
2023/10/08 08:37:39;;;;;;;4.27;1.93;;;;;;;11.70;84.09;101886.50;5028007;28;20201;-72
2023/10/08 08:40:09;;;;;;;5.37;2.23;;;;;;;11.69;80.12;101895.50;5027600;28;20204;-71
2023/10/08 08:42:36;;;;;;;5.37;2.03;;;;;;;11.69;78.84;101890.97;5021861;28;20357;-71
2023/10/08 08:45:11;;;;;;;4.93;1.97;;;;;;;11.72;79.28;101895.69;5014808;28;20208;-71
2023/10/08 08:47:40;;;;;;;5.83;2.20;;;;;;;11.75;79.32;101891.66;5023864;28;21030;-71
2023/10/08 08:50:09;;;;;;;4.13;2.10;;;;;;;11.79;80.53;101903.97;5030545;28;20255;-72
2023/10/08 08:52:36;;;;;;;4.47;2.33;;;;;;;11.82;80.28;101898.09;5026332;28;20244;-71
2023/10/08 08:55:06;;;;;;;6.00;2.20;;;;;;;11.89;80.74;101910.88;5022860;28;20212;-70
2023/10/08 08:57:33;;;;;;;3.07;2.10;;;;;;;11.93;79.20;101914.50;5025042;28;20209;-70
2023/10/08 09:00:00;;;;;;;4.23;2.17;;;;;;;12.00;77.05;101909.59;5029546;28;20214;-70
2023/10/08 09:02:27;;;;;;;3.93;2.17;;;;;;;12.06;75.99;101924.25;5027654;28;20234;-70
2023/10/08 09:04:54;;;;;;;3.33;1.70;;;;;;;12.11;78.04;101929.44;5023151;28;20213;-69
2023/10/08 09:07:22;;;;;;;5.53;1.77;;;;;;;12.13;76.13;101928.03;5024246;28;20373;-70
2023/10/08 09:09:50;;;;;;;4.20;1.60;;;;;;;12.18;76.51;101925.25;5026424;28;20240;-69
2023/10/08 09:12:17;;;;;;;3.43;1.60;;;;;;;12.23;76.80;101934.94;5024076;28;20706;-70
2023/10/08 09:14:44;;;;;;;7.57;1.40;;;;;;;12.25;80.78;101938.84;5030672;28;20216;-70
2023/10/08 09:17:11;;;;;;;2.63;1.20;;;;;;;12.27;75.64;101939.31;5029128;28;20203;-70
2023/10/08 09:19:39;;;;;;;1.10;0.77;;;;;;;12.30;74.66;101937.94;5028304;28;20654;-69
2023/10/08 09:22:07;;;;;;;1.93;0.90;;;;;;;12.34;76.79;101936.25;5023916;28;21255;-70
2023/10/08 09:24:37;;;;;;;0.93;0.70;;;;;;;12.39;76.48;101939.56;5027291;28;20302;-69
2023/10/08 09:27:04;;;;;;;1.00;0.80;;;;;;;12.37;74.27;101943.59;5024338;28;20357;-69
2023/10/08 09:29:31;;;;;;;3.67;0.90;;;;;;;12.32;74.51;101943.72;5027294;28;20736;-70
2023/10/08 09:31:58;;;;;;;1.93;1.00;;;;;;;12.33;76.50;101946.06;5025976;28;20761;-69
2023/10/08 09:34:29;;;;;;;1.63;0.90;;;;;;;12.34;77.76;101952.13;5028855;28;20236;-69
2023/10/08 09:36:59;;;;;;;2.17;0.90;;;;;;;12.29;77.40;101954.91;5027338;28;20234;-69
2023/10/08 09:39:28;;;;;;;1.33;0.87;;;;;;;12.29;73.50;101950.41;5027663;28;20303;-69
2023/10/08 09:41:55;;;;;;;2.50;0.90;;;;;;;12.30;74.31;101951.97;5018262;28;21771;-70
2023/10/08 09:44:24;;;;;;;1.20;1.07;;;;;;;12.34;76.21;101958.22;5029524;28;20315;-68
2023/10/08 09:46:54;;;;;;;1.20;0.67;;;;;;;12.39;76.05;101958.09;5024668;28;20896;-69
2023/10/08 09:49:29;;;;;;;1.70;1.00;;;;;;;12.45;73.04;101954.22;5026432;28;21820;-69
2023/10/08 09:51:59;;;;;;;1.27;0.90;;;;;;;12.54;77.94;101965.66;5025647;28;20514;-69
2023/10/08 09:54:32;;;;;;;4.77;1.00;;;;;;;12.61;76.61;101963.34;5030595;28;20757;-69
2023/10/08 09:56:59;;;;;;;0.90;0.80;;;;;;;12.69;70.54;101969.78;5030210;28;20533;-68
2023/10/08 09:59:28;;;;;;;2.33;0.93;;;;;;;12.75;70.89;101966.69;5034149;28;20216;-69
2023/10/08 10:01:59;;;;;;;3.87;0.83;;;;;;;12.82;69.56;101966.22;5031051;28;20208;-69
2023/10/08 10:04:28;;;;;;;1.40;0.70;;;;;;;12.88;71.17;101962.38;5019880;28;20242;-69
2023/10/08 10:06:57;;;;;;;1.10;0.70;;;;;;;12.95;67.04;101971.41;5027887;28;20209;-70
2023/10/08 10:09:26;;;;;;;2.93;0.83;;;;;;;13.01;66.17;101977.41;5026089;28;20231;-69
2023/10/08 10:11:54;;;;;;;1.13;0.80;;;;;;;13.04;64.21;101979.44;5027257;28;20216;-69
2023/10/08 10:14:23;;;;;;;1.40;0.60;;;;;;;13.08;71.84;101977.72;5033132;28;20236;-69
2023/10/08 10:17:05;;;;;;;1.03;0.70;;;;;;;13.12;70.54;101984.78;5034900;28;20205;-69
2023/10/08 10:19:32;;;;;;;1.20;0.87;;;;;;;13.17;63.73;101978.53;5028357;28;20213;-69
2023/10/08 10:22:00;;;;;;;2.30;0.50;;;;;;;13.25;67.03;101975.91;5024250;28;21450;-69
2023/10/08 10:24:34;;;;;;;0.53;0.53;;;;;;;13.34;68.99;101989.19;5032625;28;20234;-69
2023/10/08 10:27:11;;;;;;;1.03;0.67;;;;;;;13.37;66.15;101999.97;5029287;28;20209;-69
2023/10/08 10:29:38;;;;;;;0.70;0.60;;;;;;;13.41;73.79;101995.59;5032950;28;20217;-69
2023/10/08 10:32:05;;;;;;;0.57;0.57;;;;;;;13.44;65.58;101994.19;5025753;28;20244;-69
2023/10/08 10:34:34;;;;;;;1.47;0.60;;;;;;;13.50;67.24;101998.28;5032220;28;20300;-69
2023/10/08 10:37:08;;;;;;;1.00;0.60;;;;;;;13.50;62.52;101993.75;5023936;28;21369;-70
2023/10/08 10:39:39;;;;;;;1.60;0.70;;;;;;;13.44;61.01;102002.94;5028494;28;20904;-68
2023/10/08 10:42:20;;;;;;;1.30;0.57;;;;;;;13.41;62.21;102003.56;5024474;28;20221;-69
2023/10/08 10:44:49;;;;;;;5.03;0.90;;;;;;;13.42;63.31;102004.34;5020750;28;20307;-68
2023/10/08 10:47:42;;;;;;;1.10;0.70;;;;;;;13.46;68.71;102002.66;5023441;28;21730;-69
2023/10/08 10:50:31;;;;;;;1.77;0.67;;;;;;;13.51;62.22;102002.50;5027338;28;20206;-68
2023/10/08 10:52:57;;;;;;;1.17;0.67;;;;;;;13.57;71.46;101998.59;5024055;28;20256;-69
2023/10/08 10:55:32;;;;;;;1.40;0.70;;;;;;;13.65;62.64;102003.13;5024813;28;20513;-69
2023/10/08 10:58:04;;;;;;;2.13;0.60;;;;;;;13.73;72.28;101997.84;5025223;28;20364;-68
2023/10/08 11:00:56;;;;;;;1.40;0.60;;;;;;;13.82;59.70;101995.19;5028906;28;20205;-69
2023/10/08 11:03:23;;;;;;;6.73;0.70;;;;;;;13.90;59.30;102002.34;5026055;28;20306;-68
2023/10/08 11:05:54;;;;;;;2.10;0.70;;;;;;;13.96;60.68;101995.78;5033649;28;20205;-69
2023/10/08 11:08:23;;;;;;;0.87;0.63;;;;;;;14.02;61.13;101999.88;5024746;28;20508;-69
2023/10/08 11:10:51;;;;;;;0.83;0.60;;;;;;;14.03;59.36;102007.50;5023170;28;20221;-69
2023/10/08 11:13:28;;;;;;;1.30;0.70;;;;;;;13.99;61.69;102006.59;5026414;28;20279;-69
2023/10/08 11:15:57;;;;;;;0.50;0.50;;;;;;;14.00;56.19;102002.03;5029628;28;20213;-69
2023/10/08 11:18:27;;;;;;;1.07;0.57;;;;;;;14.01;55.17;101998.28;5024275;28;20235;-69
2023/10/08 11:21:01;;;;;;;0.70;0.50;;;;;;;14.04;54.71;101998.47;5030170;28;20214;-69
2023/10/08 11:23:35;;;;;;;0.50;0.50;;;;;;;14.11;53.00;102000.63;5026123;28;20982;-69
2023/10/08 11:26:05;;;;;;;2.97;0.63;;;;;;;14.14;57.34;101998.13;5031739;28;21271;-69
2023/10/08 11:28:33;;;;;;;0.97;0.50;;;;;;;14.19;61.82;102005.16;5028986;28;20229;-68
2023/10/08 11:31:07;;;;;;;1.87;0.70;;;;;;;14.25;59.77;101990.63;5027852;28;20988;-69
2023/10/08 11:33:35;;;;;;;1.57;0.83;;;;;;;14.28;52.95;101996.09;5029367;28;20278;-69
2023/10/08 11:36:02;;;;;;;1.13;0.60;;;;;;;14.28;54.45;101990.03;5029882;28;20992;-69
2023/10/08 11:38:38;;;;;;;0.97;0.53;;;;;;;14.24;57.02;101994.41;5028134;28;20216;-68
2023/10/08 11:41:20;;;;;;;0.57;0.50;;;;;;;14.13;52.99;101985.16;5029595;28;20210;-69
2023/10/08 11:43:53;;;;;;;2.00;0.60;;;;;;;14.09;52.95;101990.34;5028329;28;20244;-69
2023/10/08 11:46:22;;;;;;;0.80;0.57;;;;;;;14.08;57.21;101987.97;5027550;28;20205;-69
2023/10/08 11:48:50;;;;;;;0.33;0.30;;;;;;;14.08;53.76;101987.97;5031110;28;20218;-68